sensor_id;sensor_type;location;lat;lon;timestamp;P1;durP1;ratioP1;P2;durP2;ratioP2
70213;SDS011;60138;55.808;37.078;2023-03-11T00:00:59;18.17;;;9.13;;
70213;SDS011;60138;55.808;37.078;2023-03-11T00:03:25;19.77;;;8.57;;
70213;SDS011;60138;55.808;37.078;2023-03-11T00:05:51;17.65;;;9.02;;
70213;SDS011;60138;55.808;37.078;2023-03-11T00:08:18;13.65;;;8.55;;
70213;SDS011;60138;55.808;37.078;2023-03-11T00:10:47;15.38;;;8.60;;
70213;SDS011;60138;55.808;37.078;2023-03-11T00:13:15;18.25;;;8.55;;
70213;SDS011;60138;55.808;37.078;2023-03-11T00:15:42;22.00;;;9.60;;
70213;SDS011;60138;55.808;37.078;2023-03-11T00:18:09;14.47;;;8.80;;
70213;SDS011;60138;55.808;37.078;2023-03-11T00:20:36;14.57;;;8.98;;
70213;SDS011;60138;55.808;37.078;2023-03-11T00:23:03;12.60;;;7.90;;
70213;SDS011;60138;55.808;37.078;2023-03-11T00:25:30;16.00;;;8.47;;
70213;SDS011;60138;55.808;37.078;2023-03-11T00:27:58;11.52;;;8.38;;
70213;SDS011;60138;55.808;37.078;2023-03-11T00:30:24;17.83;;;7.93;;
70213;SDS011;60138;55.808;37.078;2023-03-11T00:32:52;14.33;;;7.97;;
70213;SDS011;60138;55.808;37.078;2023-03-11T00:35:23;20.98;;;8.85;;
70213;SDS011;60138;55.808;37.078;2023-03-11T00:37:55;15.20;;;8.48;;
70213;SDS011;60138;55.808;37.078;2023-03-11T00:40:23;11.52;;;8.27;;
70213;SDS011;60138;55.808;37.078;2023-03-11T00:42:50;18.60;;;9.02;;
70213;SDS011;60138;55.808;37.078;2023-03-11T00:45:16;13.23;;;8.07;;
70213;SDS011;60138;55.808;37.078;2023-03-11T00:47:41;20.30;;;8.70;;
70213;SDS011;60138;55.808;37.078;2023-03-11T00:50:08;18.65;;;8.60;;
70213;SDS011;60138;55.808;37.078;2023-03-11T00:52:38;16.17;;;8.85;;
70213;SDS011;60138;55.808;37.078;2023-03-11T00:55:04;15.10;;;8.90;;
70213;SDS011;60138;55.808;37.078;2023-03-11T00:57:31;13.52;;;7.85;;
70213;SDS011;60138;55.808;37.078;2023-03-11T00:59:58;12.60;;;7.97;;
70213;SDS011;60138;55.808;37.078;2023-03-11T01:02:24;17.73;;;8.60;;
70213;SDS011;60138;55.808;37.078;2023-03-11T01:04:53;15.10;;;8.05;;
70213;SDS011;60138;55.808;37.078;2023-03-11T01:07:19;16.07;;;7.70;;
70213;SDS011;60138;55.808;37.078;2023-03-11T01:09:45;13.80;;;8.27;;
70213;SDS011;60138;55.808;37.078;2023-03-11T01:12:11;17.60;;;7.83;;
70213;SDS011;60138;55.808;37.078;2023-03-11T01:14:37;15.68;;;8.02;;
70213;SDS011;60138;55.808;37.078;2023-03-11T01:17:02;17.87;;;8.77;;
70213;SDS011;60138;55.808;37.078;2023-03-11T01:19:28;18.60;;;9.13;;
70213;SDS011;60138;55.808;37.078;2023-03-11T01:21:54;15.70;;;8.07;;
70213;SDS011;60138;55.808;37.078;2023-03-11T01:24:19;15.20;;;8.87;;
70213;SDS011;60138;55.808;37.078;2023-03-11T01:26:45;14.40;;;8.70;;
70213;SDS011;60138;55.808;37.078;2023-03-11T01:29:11;17.67;;;8.37;;
70213;SDS011;60138;55.808;37.078;2023-03-11T01:31:36;21.65;;;8.73;;
70213;SDS011;60138;55.808;37.078;2023-03-11T01:34:02;14.73;;;8.63;;
70213;SDS011;60138;55.808;37.078;2023-03-11T01:36:28;22.08;;;8.95;;
70213;SDS011;60138;55.808;37.078;2023-03-11T01:38:53;15.57;;;8.23;;
70213;SDS011;60138;55.808;37.078;2023-03-11T01:41:19;15.07;;;7.90;;
70213;SDS011;60138;55.808;37.078;2023-03-11T01:43:47;14.40;;;7.80;;
70213;SDS011;60138;55.808;37.078;2023-03-11T01:52:02;15.70;;;8.93;;
70213;SDS011;60138;55.808;37.078;2023-03-11T01:54:17;20.27;;;8.32;;
70213;SDS011;60138;55.808;37.078;2023-03-11T01:56:46;14.18;;;8.57;;
70213;SDS011;60138;55.808;37.078;2023-03-11T01:59:13;15.82;;;9.07;;
70213;SDS011;60138;55.808;37.078;2023-03-11T02:01:44;16.15;;;9.07;;
70213;SDS011;60138;55.808;37.078;2023-03-11T02:04:33;13.73;;;8.50;;
70213;SDS011;60138;55.808;37.078;2023-03-11T02:07:00;13.13;;;8.23;;
70213;SDS011;60138;55.808;37.078;2023-03-11T02:09:27;18.60;;;9.13;;
70213;SDS011;60138;55.808;37.078;2023-03-11T02:11:53;12.88;;;7.78;;
70213;SDS011;60138;55.808;37.078;2023-03-11T02:14:20;13.85;;;8.15;;
70213;SDS011;60138;55.808;37.078;2023-03-11T02:16:47;15.00;;;8.60;;
70213;SDS011;60138;55.808;37.078;2023-03-11T02:21:59;14.20;;;8.03;;
70213;SDS011;60138;55.808;37.078;2023-03-11T02:27:04;15.57;;;8.60;;
70213;SDS011;60138;55.808;37.078;2023-03-11T02:29:34;14.20;;;8.47;;
70213;SDS011;60138;55.808;37.078;2023-03-11T02:32:02;13.38;;;8.13;;
70213;SDS011;60138;55.808;37.078;2023-03-11T02:34:31;14.02;;;8.45;;
70213;SDS011;60138;55.808;37.078;2023-03-11T02:36:59;13.90;;;8.57;;
70213;SDS011;60138;55.808;37.078;2023-03-11T02:39:32;15.98;;;9.10;;
70213;SDS011;60138;55.808;37.078;2023-03-11T02:41:59;16.88;;;8.13;;
70213;SDS011;60138;55.808;37.078;2023-03-11T02:44:29;13.98;;;8.60;;
70213;SDS011;60138;55.808;37.078;2023-03-11T02:46:55;18.53;;;8.67;;
70213;SDS011;60138;55.808;37.078;2023-03-11T02:49:21;13.68;;;8.00;;
70213;SDS011;60138;55.808;37.078;2023-03-11T02:51:47;14.98;;;8.43;;
70213;SDS011;60138;55.808;37.078;2023-03-11T02:54:13;10.33;;;7.47;;
70213;SDS011;60138;55.808;37.078;2023-03-11T02:56:39;14.00;;;8.30;;
70213;SDS011;60138;55.808;37.078;2023-03-11T02:59:05;18.73;;;9.77;;
70213;SDS011;60138;55.808;37.078;2023-03-11T03:01:31;16.33;;;9.32;;
70213;SDS011;60138;55.808;37.078;2023-03-11T03:03:57;13.95;;;8.43;;
70213;SDS011;60138;55.808;37.078;2023-03-11T03:06:22;15.37;;;8.97;;
70213;SDS011;60138;55.808;37.078;2023-03-11T03:08:50;15.18;;;8.57;;
70213;SDS011;60138;55.808;37.078;2023-03-11T03:11:15;13.43;;;8.80;;
70213;SDS011;60138;55.808;37.078;2023-03-11T03:13:41;12.18;;;8.52;;
70213;SDS011;60138;55.808;37.078;2023-03-11T03:16:07;13.23;;;8.17;;
70213;SDS011;60138;55.808;37.078;2023-03-11T03:18:32;12.38;;;8.93;;
70213;SDS011;60138;55.808;37.078;2023-03-11T03:20:59;14.47;;;8.37;;
70213;SDS011;60138;55.808;37.078;2023-03-11T03:23:24;14.52;;;9.63;;
70213;SDS011;60138;55.808;37.078;2023-03-11T03:25:50;11.93;;;7.63;;
70213;SDS011;60138;55.808;37.078;2023-03-11T03:28:16;14.90;;;7.60;;
70213;SDS011;60138;55.808;37.078;2023-03-11T03:30:44;7.85;;;5.63;;
70213;SDS011;60138;55.808;37.078;2023-03-11T03:33:12;13.25;;;8.25;;
70213;SDS011;60138;55.808;37.078;2023-03-11T03:35:41;11.73;;;8.10;;
70213;SDS011;60138;55.808;37.078;2023-03-11T03:38:17;9.45;;;6.07;;
70213;SDS011;60138;55.808;37.078;2023-03-11T03:40:46;9.27;;;6.65;;
70213;SDS011;60138;55.808;37.078;2023-03-11T03:43:15;11.40;;;6.72;;
70213;SDS011;60138;55.808;37.078;2023-03-11T03:45:43;11.93;;;8.07;;
70213;SDS011;60138;55.808;37.078;2023-03-11T03:48:08;10.68;;;7.63;;
70213;SDS011;60138;55.808;37.078;2023-03-11T03:50:39;14.60;;;7.78;;
70213;SDS011;60138;55.808;37.078;2023-03-11T03:53:06;11.57;;;7.60;;
70213;SDS011;60138;55.808;37.078;2023-03-11T03:55:32;10.90;;;7.30;;
70213;SDS011;60138;55.808;37.078;2023-03-11T03:57:59;12.10;;;7.83;;
70213;SDS011;60138;55.808;37.078;2023-03-11T04:00:31;13.65;;;8.05;;
70213;SDS011;60138;55.808;37.078;2023-03-11T04:03:00;15.88;;;7.47;;
70213;SDS011;60138;55.808;37.078;2023-03-11T04:05:46;13.02;;;8.65;;
70213;SDS011;60138;55.808;37.078;2023-03-11T04:08:12;11.82;;;9.35;;
70213;SDS011;60138;55.808;37.078;2023-03-11T04:10:38;14.65;;;8.80;;
70213;SDS011;60138;55.808;37.078;2023-03-11T04:13:04;12.60;;;9.07;;
70213;SDS011;60138;55.808;37.078;2023-03-11T04:15:31;14.35;;;10.20;;
70213;SDS011;60138;55.808;37.078;2023-03-11T04:17:57;11.93;;;8.05;;
70213;SDS011;60138;55.808;37.078;2023-03-11T04:20:23;15.10;;;8.40;;
70213;SDS011;60138;55.808;37.078;2023-03-11T04:22:50;16.40;;;9.65;;
70213;SDS011;60138;55.808;37.078;2023-03-11T04:25:18;17.13;;;11.43;;
70213;SDS011;60138;55.808;37.078;2023-03-11T04:27:43;18.37;;;11.30;;
70213;SDS011;60138;55.808;37.078;2023-03-11T04:30:09;15.60;;;10.60;;
70213;SDS011;60138;55.808;37.078;2023-03-11T04:32:36;16.70;;;10.63;;
70213;SDS011;60138;55.808;37.078;2023-03-11T04:35:03;18.38;;;11.13;;
70213;SDS011;60138;55.808;37.078;2023-03-11T04:37:30;21.08;;;11.85;;
70213;SDS011;60138;55.808;37.078;2023-03-11T04:39:56;16.75;;;11.13;;
70213;SDS011;60138;55.808;37.078;2023-03-11T04:42:22;13.65;;;10.82;;
70213;SDS011;60138;55.808;37.078;2023-03-11T04:44:48;20.45;;;11.43;;
70213;SDS011;60138;55.808;37.078;2023-03-11T04:47:14;15.43;;;10.90;;
70213;SDS011;60138;55.808;37.078;2023-03-11T04:49:40;16.52;;;11.45;;
70213;SDS011;60138;55.808;37.078;2023-03-11T04:52:05;13.80;;;9.70;;
70213;SDS011;60138;55.808;37.078;2023-03-11T04:54:31;17.43;;;10.73;;
70213;SDS011;60138;55.808;37.078;2023-03-11T04:56:57;19.13;;;12.88;;
70213;SDS011;60138;55.808;37.078;2023-03-11T04:59:23;17.20;;;10.57;;
70213;SDS011;60138;55.808;37.078;2023-03-11T05:01:50;16.70;;;10.60;;
70213;SDS011;60138;55.808;37.078;2023-03-11T05:04:16;15.07;;;10.13;;
70213;SDS011;60138;55.808;37.078;2023-03-11T05:06:41;16.00;;;11.07;;
70213;SDS011;60138;55.808;37.078;2023-03-11T05:09:07;16.63;;;10.65;;
70213;SDS011;60138;55.808;37.078;2023-03-11T05:11:36;14.35;;;10.63;;
70213;SDS011;60138;55.808;37.078;2023-03-11T05:14:02;20.53;;;12.70;;
70213;SDS011;60138;55.808;37.078;2023-03-11T05:16:27;16.63;;;10.15;;
70213;SDS011;60138;55.808;37.078;2023-03-11T05:18:53;17.03;;;10.90;;
70213;SDS011;60138;55.808;37.078;2023-03-11T05:21:19;16.80;;;11.52;;
70213;SDS011;60138;55.808;37.078;2023-03-11T05:23:45;12.90;;;9.87;;
70213;SDS011;60138;55.808;37.078;2023-03-11T05:26:12;16.17;;;10.88;;
70213;SDS011;60138;55.808;37.078;2023-03-11T05:28:40;17.33;;;11.30;;
70213;SDS011;60138;55.808;37.078;2023-03-11T05:31:07;17.02;;;11.25;;
70213;SDS011;60138;55.808;37.078;2023-03-11T05:33:37;18.45;;;11.27;;
70213;SDS011;60138;55.808;37.078;2023-03-11T05:36:06;16.55;;;10.55;;
70213;SDS011;60138;55.808;37.078;2023-03-11T05:38:35;18.20;;;12.30;;
70213;SDS011;60138;55.808;37.078;2023-03-11T05:41:02;15.18;;;11.00;;
70213;SDS011;60138;55.808;37.078;2023-03-11T05:43:28;16.05;;;11.43;;
70213;SDS011;60138;55.808;37.078;2023-03-11T05:45:54;18.23;;;11.00;;
70213;SDS011;60138;55.808;37.078;2023-03-11T05:48:20;19.35;;;11.52;;
70213;SDS011;60138;55.808;37.078;2023-03-11T05:50:46;18.02;;;12.43;;
70213;SDS011;60138;55.808;37.078;2023-03-11T05:53:12;16.30;;;11.98;;
70213;SDS011;60138;55.808;37.078;2023-03-11T05:55:38;20.08;;;12.30;;
70213;SDS011;60138;55.808;37.078;2023-03-11T05:58:03;16.63;;;11.50;;
70213;SDS011;60138;55.808;37.078;2023-03-11T06:00:30;18.95;;;11.95;;
70213;SDS011;60138;55.808;37.078;2023-03-11T06:02:58;14.87;;;9.83;;
70213;SDS011;60138;55.808;37.078;2023-03-11T06:05:23;13.70;;;9.43;;
70213;SDS011;60138;55.808;37.078;2023-03-11T06:07:50;16.13;;;11.37;;
70213;SDS011;60138;55.808;37.078;2023-03-11T06:10:17;16.92;;;10.45;;
70213;SDS011;60138;55.808;37.078;2023-03-11T06:12:44;11.18;;;8.35;;
70213;SDS011;60138;55.808;37.078;2023-03-11T06:15:21;20.92;;;11.15;;
70213;SDS011;60138;55.808;37.078;2023-03-11T06:17:47;15.90;;;10.65;;
70213;SDS011;60138;55.808;37.078;2023-03-11T06:20:12;16.73;;;9.17;;
70213;SDS011;60138;55.808;37.078;2023-03-11T06:22:39;17.33;;;9.38;;
70213;SDS011;60138;55.808;37.078;2023-03-11T06:25:05;12.07;;;8.73;;
70213;SDS011;60138;55.808;37.078;2023-03-11T06:27:32;12.82;;;8.35;;
70213;SDS011;60138;55.808;37.078;2023-03-11T06:29:57;15.93;;;8.48;;
70213;SDS011;60138;55.808;37.078;2023-03-11T06:32:24;11.82;;;8.68;;
70213;SDS011;60138;55.808;37.078;2023-03-11T06:34:50;12.50;;;8.07;;
70213;SDS011;60138;55.808;37.078;2023-03-11T06:37:17;12.02;;;7.43;;
70213;SDS011;60138;55.808;37.078;2023-03-11T06:39:43;13.32;;;8.07;;
70213;SDS011;60138;55.808;37.078;2023-03-11T06:42:12;9.97;;;8.00;;
70213;SDS011;60138;55.808;37.078;2023-03-11T06:44:40;13.07;;;8.73;;
70213;SDS011;60138;55.808;37.078;2023-03-11T06:47:06;11.32;;;8.23;;
70213;SDS011;60138;55.808;37.078;2023-03-11T06:49:32;11.07;;;7.97;;
70213;SDS011;60138;55.808;37.078;2023-03-11T06:51:59;13.23;;;8.75;;
70213;SDS011;60138;55.808;37.078;2023-03-11T06:54:24;15.17;;;10.23;;
70213;SDS011;60138;55.808;37.078;2023-03-11T06:56:50;12.02;;;8.98;;
70213;SDS011;60138;55.808;37.078;2023-03-11T06:59:16;13.82;;;9.38;;
70213;SDS011;60138;55.808;37.078;2023-03-11T07:01:43;12.47;;;8.50;;
70213;SDS011;60138;55.808;37.078;2023-03-11T07:04:09;15.70;;;10.02;;
70213;SDS011;60138;55.808;37.078;2023-03-11T07:06:37;11.93;;;8.88;;
70213;SDS011;60138;55.808;37.078;2023-03-11T07:09:21;15.80;;;10.13;;
70213;SDS011;60138;55.808;37.078;2023-03-11T07:11:47;16.42;;;10.13;;
70213;SDS011;60138;55.808;37.078;2023-03-11T07:14:20;14.00;;;8.57;;
70213;SDS011;60138;55.808;37.078;2023-03-11T07:16:50;14.43;;;8.87;;
70213;SDS011;60138;55.808;37.078;2023-03-11T07:19:24;15.85;;;9.07;;
70213;SDS011;60138;55.808;37.078;2023-03-11T07:21:50;15.00;;;8.50;;
70213;SDS011;60138;55.808;37.078;2023-03-11T07:24:15;11.23;;;7.35;;
70213;SDS011;60138;55.808;37.078;2023-03-11T07:26:41;12.20;;;8.70;;
70213;SDS011;60138;55.808;37.078;2023-03-11T07:29:07;15.63;;;9.93;;
70213;SDS011;60138;55.808;37.078;2023-03-11T07:31:33;14.70;;;10.13;;
70213;SDS011;60138;55.808;37.078;2023-03-11T07:34:00;13.15;;;8.98;;
70213;SDS011;60138;55.808;37.078;2023-03-11T07:36:29;14.30;;;9.13;;
70213;SDS011;60138;55.808;37.078;2023-03-11T07:38:59;13.30;;;8.88;;
70213;SDS011;60138;55.808;37.078;2023-03-11T07:41:27;12.90;;;9.27;;
70213;SDS011;60138;55.808;37.078;2023-03-11T07:43:55;16.13;;;9.95;;
70213;SDS011;60138;55.808;37.078;2023-03-11T07:46:22;15.10;;;10.18;;
70213;SDS011;60138;55.808;37.078;2023-03-11T07:48:49;15.23;;;9.80;;
70213;SDS011;60138;55.808;37.078;2023-03-11T07:51:17;15.10;;;9.13;;
70213;SDS011;60138;55.808;37.078;2023-03-11T07:53:44;14.45;;;9.18;;
70213;SDS011;60138;55.808;37.078;2023-03-11T07:56:11;14.68;;;10.20;;
70213;SDS011;60138;55.808;37.078;2023-03-11T07:58:39;12.52;;;9.30;;
70213;SDS011;60138;55.808;37.078;2023-03-11T08:01:06;14.23;;;10.00;;
70213;SDS011;60138;55.808;37.078;2023-03-11T08:03:37;13.07;;;9.43;;
70213;SDS011;60138;55.808;37.078;2023-03-11T08:06:10;17.03;;;7.63;;
70213;SDS011;60138;55.808;37.078;2023-03-11T08:08:44;12.30;;;8.68;;
70213;SDS011;60138;55.808;37.078;2023-03-11T08:11:10;14.85;;;9.48;;
70213;SDS011;60138;55.808;37.078;2023-03-11T08:13:36;15.60;;;9.30;;
70213;SDS011;60138;55.808;37.078;2023-03-11T08:16:03;12.45;;;8.88;;
70213;SDS011;60138;55.808;37.078;2023-03-11T08:18:30;11.20;;;8.40;;
70213;SDS011;60138;55.808;37.078;2023-03-11T08:20:57;9.27;;;6.23;;
70213;SDS011;60138;55.808;37.078;2023-03-11T08:23:23;11.68;;;8.70;;
70213;SDS011;60138;55.808;37.078;2023-03-11T08:25:48;12.53;;;8.00;;
70213;SDS011;60138;55.808;37.078;2023-03-11T08:28:14;15.68;;;8.70;;
70213;SDS011;60138;55.808;37.078;2023-03-11T08:30:40;11.13;;;7.80;;
70213;SDS011;60138;55.808;37.078;2023-03-11T08:33:05;13.00;;;8.63;;
70213;SDS011;60138;55.808;37.078;2023-03-11T08:35:31;10.77;;;8.37;;
70213;SDS011;60138;55.808;37.078;2023-03-11T08:37:57;12.77;;;8.55;;
70213;SDS011;60138;55.808;37.078;2023-03-11T08:40:22;14.70;;;9.13;;
70213;SDS011;60138;55.808;37.078;2023-03-11T08:42:48;18.27;;;10.37;;
70213;SDS011;60138;55.808;37.078;2023-03-11T08:45:14;10.52;;;7.95;;
70213;SDS011;60138;55.808;37.078;2023-03-11T08:47:40;14.20;;;8.57;;
70213;SDS011;60138;55.808;37.078;2023-03-11T08:50:07;13.57;;;8.60;;
70213;SDS011;60138;55.808;37.078;2023-03-11T08:52:37;12.35;;;9.27;;
70213;SDS011;60138;55.808;37.078;2023-03-11T08:55:02;14.87;;;10.17;;
70213;SDS011;60138;55.808;37.078;2023-03-11T08:57:29;12.98;;;8.93;;
70213;SDS011;60138;55.808;37.078;2023-03-11T08:59:55;14.75;;;9.27;;
70213;SDS011;60138;55.808;37.078;2023-03-11T09:02:21;12.77;;;8.97;;
70213;SDS011;60138;55.808;37.078;2023-03-11T09:04:46;12.37;;;8.10;;
70213;SDS011;60138;55.808;37.078;2023-03-11T09:07:12;14.88;;;9.82;;
70213;SDS011;60138;55.808;37.078;2023-03-11T09:09:38;17.25;;;10.15;;
70213;SDS011;60138;55.808;37.078;2023-03-11T09:12:04;12.25;;;9.23;;
70213;SDS011;60138;55.808;37.078;2023-03-11T09:14:30;13.13;;;8.27;;
70213;SDS011;60138;55.808;37.078;2023-03-11T09:16:55;14.48;;;8.90;;
70213;SDS011;60138;55.808;37.078;2023-03-11T09:19:21;11.77;;;7.20;;
70213;SDS011;60138;55.808;37.078;2023-03-11T09:21:47;13.23;;;9.40;;
70213;SDS011;60138;55.808;37.078;2023-03-11T09:24:13;11.70;;;7.80;;
70213;SDS011;60138;55.808;37.078;2023-03-11T09:26:38;19.27;;;9.85;;
70213;SDS011;60138;55.808;37.078;2023-03-11T09:29:04;14.57;;;9.73;;
70213;SDS011;60138;55.808;37.078;2023-03-11T09:31:29;11.53;;;8.77;;
70213;SDS011;60138;55.808;37.078;2023-03-11T09:33:55;11.63;;;8.13;;
70213;SDS011;60138;55.808;37.078;2023-03-11T09:36:21;13.40;;;9.63;;
70213;SDS011;60138;55.808;37.078;2023-03-11T09:38:47;15.60;;;11.30;;
70213;SDS011;60138;55.808;37.078;2023-03-11T09:44:01;16.98;;;10.27;;
70213;SDS011;60138;55.808;37.078;2023-03-11T09:52:14;14.30;;;9.90;;
70213;SDS011;60138;55.808;37.078;2023-03-11T09:54:44;14.43;;;9.07;;
70213;SDS011;60138;55.808;37.078;2023-03-11T09:57:17;17.65;;;10.80;;
70213;SDS011;60138;55.808;37.078;2023-03-11T09:59:45;15.73;;;9.90;;
70213;SDS011;60138;55.808;37.078;2023-03-11T10:02:22;15.98;;;10.85;;
70213;SDS011;60138;55.808;37.078;2023-03-11T10:05:00;14.70;;;9.88;;
70213;SDS011;60138;55.808;37.078;2023-03-11T10:07:31;12.77;;;8.05;;
70213;SDS011;60138;55.808;37.078;2023-03-11T10:10:03;12.80;;;9.10;;
70213;SDS011;60138;55.808;37.078;2023-03-11T10:28:25;14.20;;;10.02;;
70213;SDS011;60138;55.808;37.078;2023-03-11T10:34:26;11.57;;;8.52;;
70213;SDS011;60138;55.808;37.078;2023-03-11T10:37:05;11.43;;;7.88;;
70213;SDS011;60138;55.808;37.078;2023-03-11T10:39:41;11.75;;;8.82;;
70213;SDS011;60138;55.808;37.078;2023-03-11T10:42:20;13.48;;;9.18;;
70213;SDS011;60138;55.808;37.078;2023-03-11T10:44:49;12.32;;;7.82;;
70213;SDS011;60138;55.808;37.078;2023-03-11T10:47:18;12.87;;;8.27;;
70213;SDS011;60138;55.808;37.078;2023-03-11T10:49:46;14.75;;;8.13;;
70213;SDS011;60138;55.808;37.078;2023-03-11T10:52:11;9.30;;;7.63;;
70213;SDS011;60138;55.808;37.078;2023-03-11T10:54:39;10.10;;;6.88;;
70213;SDS011;60138;55.808;37.078;2023-03-11T10:57:18;11.65;;;8.30;;
70213;SDS011;60138;55.808;37.078;2023-03-11T10:59:51;12.40;;;8.97;;
70213;SDS011;60138;55.808;37.078;2023-03-11T11:02:28;13.73;;;8.75;;
70213;SDS011;60138;55.808;37.078;2023-03-11T11:07:42;12.50;;;7.90;;
70213;SDS011;60138;55.808;37.078;2023-03-11T11:10:14;13.98;;;8.27;;
70213;SDS011;60138;55.808;37.078;2023-03-11T11:13:01;15.98;;;7.78;;
70213;SDS011;60138;55.808;37.078;2023-03-11T11:15:37;11.52;;;9.13;;
70213;SDS011;60138;55.808;37.078;2023-03-11T11:18:06;11.30;;;8.30;;
70213;SDS011;60138;55.808;37.078;2023-03-11T11:20:53;11.85;;;8.32;;
70213;SDS011;60138;55.808;37.078;2023-03-11T11:25:56;14.50;;;7.13;;
70213;SDS011;60138;55.808;37.078;2023-03-11T11:28:24;13.63;;;8.48;;
70213;SDS011;60138;55.808;37.078;2023-03-11T11:30:57;14.77;;;9.10;;
70213;SDS011;60138;55.808;37.078;2023-03-11T11:36:03;11.90;;;8.93;;
70213;SDS011;60138;55.808;37.078;2023-03-11T11:38:30;11.18;;;7.78;;
70213;SDS011;60138;55.808;37.078;2023-03-11T11:40:57;15.53;;;9.60;;
70213;SDS011;60138;55.808;37.078;2023-03-11T11:46:48;11.40;;;8.00;;
70213;SDS011;60138;55.808;37.078;2023-03-11T11:49:02;13.68;;;8.82;;
70213;SDS011;60138;55.808;37.078;2023-03-11T11:56:58;14.25;;;9.38;;
70213;SDS011;60138;55.808;37.078;2023-03-11T11:59:26;12.97;;;7.47;;
70213;SDS011;60138;55.808;37.078;2023-03-11T12:10:15;12.52;;;8.57;;
70213;SDS011;60138;55.808;37.078;2023-03-11T12:21:27;15.30;;;9.30;;
70213;SDS011;60138;55.808;37.078;2023-03-11T12:26:48;14.90;;;7.97;;
70213;SDS011;60138;55.808;37.078;2023-03-11T12:32:02;11.65;;;8.23;;
70213;SDS011;60138;55.808;37.078;2023-03-11T12:34:28;12.93;;;8.07;;
70213;SDS011;60138;55.808;37.078;2023-03-11T12:36:59;13.75;;;8.07;;
70213;SDS011;60138;55.808;37.078;2023-03-11T12:39:30;12.25;;;8.10;;
70213;SDS011;60138;55.808;37.078;2023-03-11T12:44:36;11.05;;;7.95;;
70213;SDS011;60138;55.808;37.078;2023-03-11T12:49:33;12.73;;;8.18;;
70213;SDS011;60138;55.808;37.078;2023-03-11T12:52:02;13.63;;;8.73;;
70213;SDS011;60138;55.808;37.078;2023-03-11T12:54:32;11.05;;;8.60;;
70213;SDS011;60138;55.808;37.078;2023-03-11T12:57:04;12.60;;;9.02;;
70213;SDS011;60138;55.808;37.078;2023-03-11T13:16:46;14.27;;;8.25;;
70213;SDS011;60138;55.808;37.078;2023-03-11T13:21:56;9.50;;;7.07;;
70213;SDS011;60138;55.808;37.078;2023-03-11T13:32:22;14.03;;;8.53;;
70213;SDS011;60138;55.808;37.078;2023-03-11T13:35:08;11.80;;;7.95;;
70213;SDS011;60138;55.808;37.078;2023-03-11T13:37:59;12.43;;;8.77;;
70213;SDS011;60138;55.808;37.078;2023-03-11T13:40:39;12.20;;;7.73;;
70213;SDS011;60138;55.808;37.078;2023-03-11T13:45:37;10.68;;;7.25;;
70213;SDS011;60138;55.808;37.078;2023-03-11T13:50:39;16.73;;;9.63;;
70213;SDS011;60138;55.808;37.078;2023-03-11T13:53:08;15.23;;;9.13;;
70213;SDS011;60138;55.808;37.078;2023-03-11T13:55:42;14.75;;;10.02;;
70213;SDS011;60138;55.808;37.078;2023-03-11T13:58:18;14.10;;;8.70;;
70213;SDS011;60138;55.808;37.078;2023-03-11T14:00:49;15.82;;;9.35;;
70213;SDS011;60138;55.808;37.078;2023-03-11T14:03:21;14.27;;;8.73;;
70213;SDS011;60138;55.808;37.078;2023-03-11T14:05:49;12.03;;;8.43;;
70213;SDS011;60138;55.808;37.078;2023-03-11T14:08:51;14.18;;;9.75;;
70213;SDS011;60138;55.808;37.078;2023-03-11T14:11:18;14.35;;;8.52;;
70213;SDS011;60138;55.808;37.078;2023-03-11T14:13:49;16.17;;;9.17;;
70213;SDS011;60138;55.808;37.078;2023-03-11T14:19:05;14.23;;;8.25;;
70213;SDS011;60138;55.808;37.078;2023-03-11T14:21:41;14.35;;;8.98;;
70213;SDS011;60138;55.808;37.078;2023-03-11T14:24:14;13.00;;;8.23;;
70213;SDS011;60138;55.808;37.078;2023-03-11T14:26:41;14.18;;;10.20;;
70213;SDS011;60138;55.808;37.078;2023-03-11T14:29:08;13.55;;;9.45;;
70213;SDS011;60138;55.808;37.078;2023-03-11T14:31:40;11.03;;;7.83;;
70213;SDS011;60138;55.808;37.078;2023-03-11T14:34:21;15.15;;;8.90;;
70213;SDS011;60138;55.808;37.078;2023-03-11T14:36:49;14.65;;;10.00;;
70213;SDS011;60138;55.808;37.078;2023-03-11T14:41:48;16.00;;;9.85;;
70213;SDS011;60138;55.808;37.078;2023-03-11T14:44:15;14.48;;;9.52;;
70213;SDS011;60138;55.808;37.078;2023-03-11T14:46:41;14.23;;;9.30;;
70213;SDS011;60138;55.808;37.078;2023-03-11T14:49:07;16.50;;;10.30;;
70213;SDS011;60138;55.808;37.078;2023-03-11T14:51:42;14.65;;;8.50;;
70213;SDS011;60138;55.808;37.078;2023-03-11T14:54:16;17.02;;;10.07;;
70213;SDS011;60138;55.808;37.078;2023-03-11T14:56:46;18.43;;;9.80;;
70213;SDS011;60138;55.808;37.078;2023-03-11T14:59:20;18.52;;;11.27;;
70213;SDS011;60138;55.808;37.078;2023-03-11T15:01:53;20.15;;;10.88;;
70213;SDS011;60138;55.808;37.078;2023-03-11T15:06:54;18.20;;;9.40;;
70213;SDS011;60138;55.808;37.078;2023-03-11T15:09:21;20.85;;;11.93;;
70213;SDS011;60138;55.808;37.078;2023-03-11T15:11:58;17.03;;;10.23;;
70213;SDS011;60138;55.808;37.078;2023-03-11T15:14:26;17.40;;;10.55;;
70213;SDS011;60138;55.808;37.078;2023-03-11T15:16:54;15.60;;;10.13;;
70213;SDS011;60138;55.808;37.078;2023-03-11T15:19:32;14.10;;;9.50;;
70213;SDS011;60138;55.808;37.078;2023-03-11T15:21:59;19.38;;;10.65;;
70213;SDS011;60138;55.808;37.078;2023-03-11T15:24:47;13.15;;;8.43;;
70213;SDS011;60138;55.808;37.078;2023-03-11T15:27:37;16.45;;;9.73;;
70213;SDS011;60138;55.808;37.078;2023-03-11T15:30:03;19.55;;;10.65;;
70213;SDS011;60138;55.808;37.078;2023-03-11T15:32:42;17.98;;;10.68;;
70213;SDS011;60138;55.808;37.078;2023-03-11T15:37:33;14.43;;;9.35;;
70213;SDS011;60138;55.808;37.078;2023-03-11T15:40:10;17.53;;;10.00;;
70213;SDS011;60138;55.808;37.078;2023-03-11T15:42:45;13.75;;;9.13;;
70213;SDS011;60138;55.808;37.078;2023-03-11T15:45:14;16.93;;;10.10;;
70213;SDS011;60138;55.808;37.078;2023-03-11T15:47:42;17.45;;;9.93;;
70213;SDS011;60138;55.808;37.078;2023-03-11T15:50:20;16.13;;;10.07;;
70213;SDS011;60138;55.808;37.078;2023-03-11T15:52:50;16.15;;;10.23;;
70213;SDS011;60138;55.808;37.078;2023-03-11T15:55:17;13.13;;;8.52;;
70213;SDS011;60138;55.808;37.078;2023-03-11T15:57:43;12.98;;;9.30;;
70213;SDS011;60138;55.808;37.078;2023-03-11T16:00:17;15.83;;;9.53;;
70213;SDS011;60138;55.808;37.078;2023-03-11T16:02:45;17.50;;;10.45;;
70213;SDS011;60138;55.808;37.078;2023-03-11T16:05:11;16.13;;;8.47;;
70213;SDS011;60138;55.808;37.078;2023-03-11T16:07:47;17.58;;;9.98;;
70213;SDS011;60138;55.808;37.078;2023-03-11T16:10:14;15.82;;;10.00;;
70213;SDS011;60138;55.808;37.078;2023-03-11T16:12:41;16.47;;;10.60;;
70213;SDS011;60138;55.808;37.078;2023-03-11T16:15:26;15.10;;;9.48;;
70213;SDS011;60138;55.808;37.078;2023-03-11T16:17:55;17.55;;;9.85;;
70213;SDS011;60138;55.808;37.078;2023-03-11T16:20:22;12.80;;;9.20;;
70213;SDS011;60138;55.808;37.078;2023-03-11T16:22:50;22.92;;;13.00;;
70213;SDS011;60138;55.808;37.078;2023-03-11T16:25:25;17.80;;;9.38;;
70213;SDS011;60138;55.808;37.078;2023-03-11T16:27:58;20.47;;;11.40;;
70213;SDS011;60138;55.808;37.078;2023-03-11T16:30:24;19.05;;;10.77;;
70213;SDS011;60138;55.808;37.078;2023-03-11T16:32:51;25.20;;;11.68;;